createdAt,value
2017-11-28T00:01:06.814Z,96428.64
2017-11-28T00:03:32.938Z,96417.42
2017-11-28T00:05:59.230Z,96420.03
2017-11-28T00:08:25.332Z,96414.28
2017-11-28T00:10:51.421Z,96416.00
2017-11-28T00:13:17.537Z,96416.45
2017-11-28T00:15:43.708Z,96411.70
2017-11-28T00:18:09.854Z,96411.45
2017-11-28T00:20:35.901Z,96403.47
2017-11-28T00:23:02.040Z,96414.17
2017-11-28T00:25:28.191Z,96402.45
2017-11-28T00:27:54.355Z,96395.64
2017-11-28T00:30:20.452Z,96391.97
2017-11-28T00:32:46.619Z,96398.30
2017-11-28T00:35:12.790Z,96391.75
2017-11-28T00:37:38.964Z,96397.17
2017-11-28T00:40:05.061Z,96389.03
2017-11-28T00:42:31.189Z,96392.81
2017-11-28T00:44:57.261Z,96375.62
2017-11-28T00:47:23.333Z,96379.89
2017-11-28T00:49:49.454Z,96375.73
2017-11-28T00:52:15.569Z,96374.03
2017-11-28T00:54:41.666Z,96368.59
2017-11-28T00:57:07.838Z,96368.59
2017-11-28T00:59:34.042Z,96374.17
2017-11-28T01:02:00.149Z,96373.14
2017-11-28T01:04:26.261Z,96367.09
2017-11-28T01:06:52.358Z,96364.97
2017-11-28T01:09:18.473Z,96363.67
2017-11-28T01:11:44.673Z,96367.84
2017-11-28T01:14:10.778Z,96366.42
2017-11-28T01:16:36.878Z,96353.89
2017-11-28T01:19:02.982Z,96355.98
2017-11-28T01:21:29.066Z,96361.17
2017-11-28T01:23:55.163Z,96353.34
2017-11-28T01:26:21.337Z,96349.84
2017-11-28T01:28:47.464Z,96344.09
2017-11-28T01:31:13.537Z,96347.12
2017-11-28T01:33:39.631Z,96338.51
2017-11-28T01:36:05.805Z,96336.70
2017-11-28T01:38:31.912Z,96332.65
2017-11-28T01:40:57.989Z,96328.23
2017-11-28T01:43:24.172Z,96332.97
2017-11-28T01:45:50.225Z,96329.06
2017-11-28T01:48:16.337Z,96331.17
2017-11-28T01:50:42.507Z,96318.67
2017-11-28T01:53:08.626Z,96315.68
2017-11-28T01:55:34.723Z,96307.67
2017-11-28T01:58:00.849Z,96309.02
2017-11-28T02:00:26.913Z,96302.63
2017-11-28T02:02:53.002Z,96308.31
2017-11-28T02:05:19.109Z,96298.89
2017-11-28T02:07:45.236Z,96295.78
2017-11-28T02:10:11.358Z,96292.64
2017-11-28T02:12:37.422Z,96292.54
2017-11-28T02:15:03.488Z,96268.01
2017-11-28T02:17:29.592Z,96279.45
2017-11-28T02:19:55.675Z,96279.17
2017-11-28T02:22:21.781Z,96274.72
2017-11-28T02:24:47.881Z,96277.08
2017-11-28T02:27:13.950Z,96269.39
2017-11-28T02:29:40.066Z,96273.41
2017-11-28T02:32:06.201Z,96269.71
2017-11-28T02:34:32.308Z,96264.63
2017-11-28T02:36:58.373Z,96263.71
2017-11-28T02:39:24.471Z,96259.62
2017-11-28T02:41:50.600Z,96261.03
2017-11-28T02:44:16.683Z,96257.50
2017-11-28T02:46:42.765Z,96255.56
2017-11-28T02:52:11.097Z,96249.91
2017-11-28T02:54:48.906Z,96240.06
2017-11-28T02:57:14.933Z,96245.67
2017-11-28T02:59:41.770Z,96232.66
2017-11-28T03:02:07.852Z,96239.81
2017-11-28T03:04:33.936Z,96232.79
2017-11-28T03:07:00.030Z,96234.52
2017-11-28T03:09:41.022Z,96230.20
2017-11-28T03:12:08.842Z,96232.00
2017-11-28T03:14:41.711Z,96225.62
2017-11-28T03:17:07.780Z,96220.78
2017-11-28T03:19:37.591Z,96217.53
2017-11-28T03:22:08.546Z,96209.80
2017-11-28T03:24:44.568Z,96207.33
2017-11-28T03:27:10.684Z,96206.91
2017-11-28T03:29:46.776Z,96207.28
2017-11-28T03:32:12.910Z,96205.21
2017-11-28T03:34:39.000Z,96212.80
2017-11-28T03:37:05.154Z,96211.59
2017-11-28T03:39:31.349Z,96199.21
2017-11-28T03:41:57.474Z,96202.07
2017-11-28T03:44:36.269Z,96193.98
2017-11-28T03:47:02.378Z,96188.80
2017-11-28T03:49:28.518Z,96190.89
2017-11-28T03:51:54.613Z,96194.27
2017-11-28T03:54:20.642Z,96194.90
2017-11-28T03:56:46.761Z,96190.89
2017-11-28T03:59:13.010Z,96186.77
2017-11-28T04:01:39.106Z,96183.02
2017-11-28T04:04:05.184Z,96181.19
2017-11-28T04:06:31.323Z,96183.45
2017-11-28T04:08:57.422Z,96178.73
2017-11-28T04:11:23.581Z,96172.23
2017-11-28T04:13:49.728Z,96173.89
2017-11-28T04:16:15.851Z,96170.83
2017-11-28T04:18:41.957Z,96169.73
2017-11-28T04:21:08.034Z,96158.66
2017-11-28T04:23:34.109Z,96157.91
2017-11-28T04:26:00.193Z,96152.94
2017-11-28T04:28:26.321Z,96153.75
2017-11-28T04:30:52.437Z,96153.19
2017-11-28T04:33:18.529Z,96154.57
2017-11-28T04:35:44.681Z,96151.45
2017-11-28T04:38:10.779Z,96153.00
2017-11-28T04:40:36.829Z,96151.31
2017-11-28T04:43:03.010Z,96144.78
2017-11-28T04:45:29.081Z,96146.46
2017-11-28T04:47:55.154Z,96137.70
2017-11-28T04:50:21.322Z,96137.17
2017-11-28T04:52:47.473Z,96135.55
2017-11-28T04:55:13.513Z,96133.31
2017-11-28T04:57:39.623Z,96134.14
2017-11-28T05:00:05.745Z,96135.00
2017-11-28T05:02:31.845Z,96137.03
2017-11-28T05:04:57.982Z,96133.12
2017-11-28T05:07:24.173Z,96131.71
2017-11-28T05:09:50.307Z,96136.75
2017-11-28T05:12:16.518Z,96128.03
2017-11-28T05:14:42.670Z,96129.64
2017-11-28T05:17:08.793Z,96128.42
2017-11-28T05:19:34.936Z,96128.08
2017-11-28T05:22:01.047Z,96125.20
2017-11-28T05:24:27.206Z,96118.33
2017-11-28T05:26:53.349Z,96119.69
2017-11-28T05:29:19.452Z,96115.56
2017-11-28T05:31:45.578Z,96113.20
2017-11-28T05:34:11.649Z,96113.92
2017-11-28T05:36:37.781Z,96107.94
2017-11-28T05:39:03.854Z,96101.88
2017-11-28T05:41:30.041Z,96100.43
2017-11-28T05:43:56.073Z,96095.12
2017-11-28T05:46:22.166Z,96112.47
2017-11-28T05:48:48.265Z,96102.55
2017-11-28T05:51:14.343Z,96107.69
2017-11-28T05:53:41.345Z,96098.10
2017-11-28T05:56:07.458Z,96099.61
2017-11-28T05:58:33.587Z,96103.77
2017-11-28T06:00:59.641Z,96096.22
2017-11-28T06:03:25.750Z,96088.29
2017-11-28T06:05:51.837Z,96090.56
2017-11-28T06:08:24.900Z,96089.16
2017-11-28T06:10:50.997Z,96088.05
2017-11-28T06:13:17.045Z,96083.39
2017-11-28T06:15:43.137Z,96090.04
2017-11-28T06:18:09.298Z,96081.95
2017-11-28T06:20:35.389Z,96086.13
2017-11-28T06:23:01.449Z,96082.33
2017-11-28T06:25:27.534Z,96080.41
2017-11-28T06:27:53.653Z,96076.72
2017-11-28T06:30:19.746Z,96077.21
2017-11-28T06:32:45.877Z,96079.00
2017-11-28T06:35:11.986Z,96077.84
2017-11-28T06:37:38.062Z,96077.27
2017-11-28T06:40:04.113Z,96077.11
2017-11-28T06:42:30.209Z,96073.68
2017-11-28T06:44:56.353Z,96071.74
2017-11-28T06:47:22.509Z,96069.91
2017-11-28T06:49:48.590Z,96070.34
2017-11-28T06:52:14.676Z,96070.77
2017-11-28T06:54:40.784Z,96077.58
2017-11-28T06:57:06.864Z,96071.50
2017-11-28T06:59:32.930Z,96069.91
2017-11-28T07:01:59.082Z,96070.58
2017-11-28T07:04:25.231Z,96071.74
2017-11-28T07:06:51.383Z,96075.37
2017-11-28T07:09:17.476Z,96070.39
2017-11-28T07:11:43.551Z,96078.77
2017-11-28T07:14:09.655Z,96078.86
2017-11-28T07:16:35.773Z,96080.16
2017-11-28T07:19:01.874Z,96084.28
2017-11-28T07:21:27.965Z,96074.11
2017-11-28T07:23:54.033Z,96072.17
2017-11-28T07:26:20.116Z,96071.59
2017-11-28T07:28:46.280Z,96073.00
2017-11-28T07:31:12.410Z,96075.47
2017-11-28T07:33:38.528Z,96071.26
2017-11-28T07:36:04.655Z,96072.32
2017-11-28T07:38:30.857Z,96076.29
2017-11-28T07:40:57.297Z,96072.37
2017-11-28T07:43:23.501Z,96071.35
2017-11-28T07:45:49.565Z,96068.49
2017-11-28T07:48:15.650Z,96066.38
2017-11-28T07:50:41.714Z,96065.37
2017-11-28T07:53:07.793Z,96068.55
2017-11-28T07:55:33.892Z,96068.35
2017-11-28T07:57:59.969Z,96067.33
2017-11-28T08:00:26.038Z,96069.27
2017-11-28T08:02:52.098Z,96068.13
2017-11-28T08:05:18.178Z,96060.80
2017-11-28T08:07:44.255Z,96062.30
2017-11-28T08:10:10.370Z,96058.53
2017-11-28T08:12:36.450Z,96061.34
2017-11-28T08:15:02.610Z,96052.83
2017-11-28T08:17:28.705Z,96050.94
2017-11-28T08:19:54.813Z,96046.63
2017-11-28T08:22:20.949Z,96050.94
2017-11-28T08:24:47.071Z,96049.47
2017-11-28T08:27:13.202Z,96047.38
2017-11-28T08:29:39.361Z,96041.64
2017-11-28T08:32:05.526Z,96036.25
2017-11-28T08:34:31.645Z,96038.67
2017-11-28T08:36:57.758Z,96045.73
2017-11-28T08:39:23.897Z,96037.61
2017-11-28T08:41:49.993Z,96040.37
2017-11-28T08:44:16.050Z,96043.31
2017-11-28T08:46:42.181Z,96041.87
2017-11-28T08:49:08.322Z,96042.19
2017-11-28T08:51:34.482Z,96035.12
2017-11-28T08:54:00.548Z,96033.70
2017-11-28T08:56:26.663Z,96030.36
2017-11-28T08:58:52.826Z,96041.42
2017-11-28T09:01:19.025Z,96038.47
2017-11-28T09:03:45.209Z,96035.31
2017-11-28T09:06:11.302Z,96037.84
2017-11-28T09:08:37.393Z,96043.30
2017-11-28T09:11:03.506Z,96041.00
2017-11-28T09:13:29.603Z,96033.81
2017-11-28T09:15:55.702Z,96037.75
2017-11-28T09:18:21.797Z,96032.94
2017-11-28T09:20:47.898Z,96033.95
2017-11-28T09:23:14.057Z,96037.94
2017-11-28T09:25:40.115Z,96039.05
2017-11-28T09:28:06.256Z,96049.06
2017-11-28T09:30:32.395Z,96036.97
2017-11-28T09:32:58.463Z,96039.77
2017-11-28T09:35:24.599Z,96030.17
2017-11-28T09:37:50.713Z,96032.56
2017-11-28T09:40:16.776Z,96032.50
2017-11-28T09:42:42.845Z,96032.30
2017-11-28T09:45:08.950Z,96032.92
2017-11-28T09:47:35.083Z,96033.16
2017-11-28T09:50:01.202Z,96025.31
2017-11-28T09:52:27.318Z,96026.62
2017-11-28T09:54:53.415Z,96025.11
2017-11-28T09:57:19.499Z,96025.31
2017-11-28T09:59:45.706Z,96028.94
2017-11-28T10:02:11.790Z,96023.80
2017-11-28T10:04:37.922Z,96023.23
2017-11-28T10:07:04.059Z,96020.38
2017-11-28T10:09:30.073Z,96026.89
2017-11-28T10:11:56.221Z,96012.20
2017-11-28T10:14:22.296Z,96008.18
2017-11-28T10:16:48.390Z,96007.67
2017-11-28T10:19:14.480Z,96002.71
2017-11-28T10:21:40.533Z,96009.88
2017-11-28T10:24:07.058Z,96004.02
2017-11-28T10:26:33.219Z,96005.27
2017-11-28T10:28:59.373Z,95988.55
2017-11-28T10:31:25.490Z,95994.05
2017-11-28T10:33:51.554Z,95995.23
2017-11-28T10:36:17.714Z,95994.34
2017-11-28T10:38:43.809Z,95992.11
2017-11-28T10:41:09.918Z,95988.58
2017-11-28T10:43:36.022Z,95984.80
2017-11-28T10:46:02.133Z,95990.95
2017-11-28T10:48:28.231Z,95984.50
2017-11-28T10:50:54.308Z,95995.23
2017-11-28T10:53:20.442Z,95989.86
2017-11-28T10:55:46.544Z,95997.98
2017-11-28T10:58:12.610Z,95994.65
2017-11-28T11:00:38.730Z,95986.02
2017-11-28T11:03:04.830Z,95987.00
2017-11-28T11:05:31.006Z,95987.41
2017-11-28T11:07:57.171Z,95988.34
2017-11-28T11:10:23.333Z,95989.02
2017-11-28T11:12:49.460Z,95995.18
2017-11-28T11:15:15.541Z,95981.50
2017-11-28T11:17:41.654Z,95992.47
2017-11-28T11:20:07.767Z,95990.33
2017-11-28T11:22:33.863Z,95993.48
2017-11-28T11:24:59.990Z,95993.10
2017-11-28T11:27:26.084Z,95982.25
2017-11-28T11:29:52.189Z,95977.07
2017-11-28T11:32:18.218Z,95981.65
2017-11-28T11:34:44.310Z,95982.95
2017-11-28T11:37:10.422Z,95986.56
2017-11-28T11:39:36.513Z,95989.89
2017-11-28T11:42:02.613Z,95982.39
2017-11-28T11:44:28.729Z,95978.34
2017-11-28T11:46:54.892Z,95976.45
2017-11-28T11:49:20.974Z,95978.14
2017-11-28T11:51:47.212Z,95973.41
2017-11-28T11:54:13.345Z,95976.14
2017-11-28T11:56:39.422Z,95969.99
2017-11-28T11:59:05.591Z,95969.67
2017-11-28T12:01:31.705Z,95971.42
2017-11-28T12:03:57.810Z,95972.61
2017-11-28T12:06:23.885Z,95964.45
2017-11-28T12:08:49.975Z,95960.14
2017-11-28T12:11:16.123Z,95974.93
2017-11-28T12:13:42.297Z,95968.75
2017-11-28T12:16:08.370Z,95959.97
2017-11-28T12:18:34.510Z,95962.89
2017-11-28T12:21:00.665Z,95960.89
2017-11-28T12:23:26.812Z,95958.75
2017-11-28T12:25:52.967Z,95973.32
2017-11-28T12:28:19.042Z,95966.09
2017-11-28T12:30:45.181Z,95965.92
2017-11-28T12:33:11.398Z,95962.29
2017-11-28T12:35:37.492Z,95967.31
2017-11-28T12:38:03.641Z,95970.35
2017-11-28T12:40:29.762Z,95971.04
2017-11-28T12:42:55.865Z,95972.28
2017-11-28T12:45:21.926Z,95963.13
2017-11-28T12:47:48.031Z,95956.14
2017-11-28T12:50:14.201Z,95950.81
2017-11-28T12:52:40.311Z,95954.74
2017-11-28T12:55:06.398Z,95946.59
2017-11-28T12:57:32.498Z,95936.57
2017-11-28T12:59:58.579Z,95945.05
2017-11-28T13:02:24.701Z,95944.36
2017-11-28T13:04:50.767Z,95945.55
2017-11-28T13:07:16.897Z,95944.72
2017-11-28T13:09:43.053Z,95945.28
2017-11-28T13:12:09.181Z,95945.64
2017-11-28T13:14:35.237Z,95946.56
2017-11-28T13:17:01.296Z,95942.94
2017-11-28T13:19:27.427Z,95948.17
2017-11-28T13:21:53.534Z,95945.28
2017-11-28T13:24:19.731Z,95946.08
2017-11-28T13:26:45.786Z,95942.20
2017-11-28T13:29:11.890Z,95945.23
2017-11-28T13:31:37.958Z,95940.69
2017-11-28T13:34:04.038Z,95943.38
2017-11-28T13:36:30.289Z,95938.67
2017-11-28T13:38:56.442Z,95939.77
2017-11-28T13:41:22.580Z,95938.39
2017-11-28T13:43:48.693Z,95938.39
2017-11-28T13:46:14.832Z,95944.55
2017-11-28T13:48:40.955Z,95941.61
2017-11-28T13:51:07.091Z,95944.47
2017-11-28T13:53:33.212Z,95941.48
2017-11-28T13:55:59.301Z,95946.50
2017-11-28T13:58:25.435Z,95942.88
2017-11-28T14:00:51.573Z,95935.69
2017-11-28T14:03:17.735Z,95929.00
2017-11-28T14:05:43.867Z,95934.39
2017-11-28T14:08:09.981Z,95934.97
2017-11-28T14:10:36.100Z,95933.66
2017-11-28T14:13:02.268Z,95943.66
2017-11-28T14:15:28.426Z,95943.66
2017-11-28T14:17:54.531Z,95943.84
2017-11-28T14:23:41.425Z,95937.06
2017-11-28T14:29:33.538Z,95937.22
2017-11-28T14:35:08.722Z,95949.61
2017-11-28T14:37:34.991Z,95944.73
2017-11-28T14:40:01.109Z,95949.55
2017-11-28T14:42:32.214Z,95948.22
2017-11-28T14:45:04.394Z,95950.96
2017-11-28T14:47:30.690Z,95943.94
2017-11-28T14:49:56.939Z,95958.34
2017-11-28T14:52:23.109Z,95950.72
2017-11-28T14:54:55.253Z,95945.10
2017-11-28T14:57:26.480Z,95950.63
2017-11-28T14:59:58.480Z,95949.44
2017-11-28T15:02:30.620Z,95951.52
2017-11-28T15:05:02.895Z,95961.66
2017-11-28T15:10:39.344Z,95969.67
2017-11-28T15:13:11.617Z,95962.20
2017-11-28T15:15:43.913Z,95964.45
2017-11-28T15:18:16.025Z,95966.54
2017-11-28T15:20:47.316Z,95959.52
2017-11-28T15:26:26.665Z,95958.91
2017-11-28T15:28:52.901Z,95953.73
2017-11-28T15:31:19.029Z,95953.55
2017-11-28T15:33:45.145Z,95956.83
2017-11-28T15:36:11.266Z,95956.80
2017-11-28T15:38:37.387Z,95962.12
2017-11-28T15:41:03.515Z,95953.20
2017-11-28T15:43:29.609Z,95961.73
2017-11-28T15:45:55.706Z,95958.11
2017-11-28T15:48:21.829Z,95954.41
2017-11-28T15:50:47.949Z,95956.88
2017-11-28T15:53:14.256Z,95957.59
2017-11-28T15:55:40.354Z,95962.72
2017-11-28T15:58:06.565Z,95962.83
2017-11-28T16:00:32.650Z,95961.08
2017-11-28T16:02:59.810Z,95962.09
2017-11-28T16:05:25.913Z,95967.33
2017-11-28T16:07:51.969Z,95970.20
2017-11-28T16:10:18.084Z,95972.11
2017-11-28T16:12:44.172Z,95969.20
2017-11-28T16:15:10.265Z,95969.08
2017-11-28T16:17:36.395Z,95968.22
2017-11-28T16:20:02.606Z,95970.50
2017-11-28T16:22:28.726Z,95964.80
2017-11-28T16:24:54.819Z,95963.28
2017-11-28T16:27:20.938Z,95956.50
2017-11-28T16:29:47.108Z,95959.56
2017-11-28T16:32:13.181Z,95953.50
2017-11-28T16:34:39.322Z,95949.58
2017-11-28T16:37:05.408Z,95946.19
2017-11-28T16:39:31.483Z,95935.69
2017-11-28T16:41:57.594Z,95954.46
2017-11-28T16:44:23.754Z,95950.98
2017-11-28T16:46:49.931Z,95954.86
2017-11-28T16:49:16.036Z,95953.53
2017-11-28T16:51:42.182Z,95944.89
2017-11-28T16:54:08.439Z,95940.77
2017-11-28T16:56:34.529Z,95940.53
2017-11-28T16:59:00.670Z,95936.02
2017-11-28T17:01:26.794Z,95933.70
2017-11-28T17:03:52.941Z,95930.91
2017-11-28T17:06:19.113Z,95929.95
2017-11-28T17:08:45.343Z,95943.34
2017-11-28T17:11:11.528Z,95941.54
2017-11-28T17:13:37.721Z,95942.11
2017-11-28T17:16:03.847Z,95939.45
2017-11-28T17:18:30.007Z,95940.08
2017-11-28T17:20:56.164Z,95937.25
2017-11-28T17:23:22.309Z,95939.71
2017-11-28T17:25:48.581Z,95937.62
2017-11-28T17:28:14.734Z,95934.85
2017-11-28T17:30:40.895Z,95926.08
2017-11-28T17:33:07.065Z,95934.77
2017-11-28T17:35:33.203Z,95937.17
2017-11-28T17:37:59.444Z,95935.68
2017-11-28T17:40:25.599Z,95939.37
2017-11-28T17:42:51.719Z,95928.88
2017-11-28T17:45:17.846Z,95927.10
2017-11-28T17:47:44.128Z,95924.34
2017-11-28T17:50:10.323Z,95914.80
2017-11-28T17:52:36.582Z,95917.38
2017-11-28T17:55:02.899Z,95914.91
2017-11-28T17:57:29.054Z,95912.17
2017-11-28T17:59:55.118Z,95906.28
2017-11-28T18:02:21.350Z,95913.88
2017-11-28T18:04:47.486Z,95907.96
2017-11-28T18:07:13.630Z,95908.05
2017-11-28T18:09:39.785Z,95909.62
2017-11-28T18:12:05.886Z,95903.43
2017-11-28T18:14:31.907Z,95910.94
2017-11-28T18:16:58.091Z,95906.66
2017-11-28T18:19:24.140Z,95914.92
2017-11-28T18:21:50.252Z,95917.63
2017-11-28T18:24:16.347Z,95912.55
2017-11-28T18:26:42.482Z,95913.08
2017-11-28T18:29:08.564Z,95912.73
2017-11-28T18:31:34.782Z,95917.58
2017-11-28T18:34:00.912Z,95909.30
2017-11-28T18:36:27.111Z,95907.75
2017-11-28T18:38:53.304Z,95909.56
2017-11-28T18:41:19.445Z,95915.17
2017-11-28T18:43:45.563Z,95913.52
2017-11-28T18:46:11.666Z,95918.27
2017-11-28T18:48:37.761Z,95912.56
2017-11-28T18:51:03.904Z,95911.28
2017-11-28T18:53:30.010Z,95910.27
2017-11-28T18:55:56.099Z,95903.22
2017-11-28T18:58:22.218Z,95906.13
2017-11-28T19:00:48.314Z,95900.16
2017-11-28T19:03:14.477Z,95903.53
2017-11-28T19:05:40.654Z,95898.91
2017-11-28T19:08:06.783Z,95895.56
2017-11-28T19:10:32.857Z,95905.86
2017-11-28T19:12:58.972Z,95898.94
2017-11-28T19:15:25.118Z,95909.53
2017-11-28T19:17:51.207Z,95909.53
2017-11-28T19:20:17.374Z,95902.84
2017-11-28T19:22:43.526Z,95908.08
2017-11-28T19:25:09.756Z,95911.11
2017-11-28T19:27:35.921Z,95912.26
2017-11-28T19:30:12.022Z,95908.44
2017-11-28T19:32:38.194Z,95902.15
2017-11-28T19:35:04.601Z,95897.80
2017-11-28T19:37:31.367Z,95894.02
2017-11-28T19:39:57.674Z,95893.64
2017-11-28T19:42:23.946Z,95893.53
2017-11-28T19:44:50.269Z,95892.45
2017-11-28T19:47:16.610Z,95885.78
2017-11-28T19:49:43.009Z,95885.52
2017-11-28T19:52:09.266Z,95882.06
2017-11-28T19:54:35.623Z,95893.84
2017-11-28T19:57:01.920Z,95892.77
2017-11-28T19:59:28.208Z,95888.85
2017-11-28T20:01:54.534Z,95881.05
2017-11-28T20:04:21.751Z,95881.91
2017-11-28T20:06:47.999Z,95875.48
2017-11-28T20:09:14.373Z,95877.75
2017-11-28T20:11:40.549Z,95892.38
2017-11-28T20:14:06.673Z,95885.48
2017-11-28T20:16:32.859Z,95886.19
2017-11-28T20:18:59.255Z,95892.03
2017-11-28T20:21:25.543Z,95892.27
2017-11-28T20:23:51.843Z,95893.44
2017-11-28T20:26:18.146Z,95886.08
2017-11-28T20:28:44.425Z,95887.38
2017-11-28T20:31:10.836Z,95886.70
2017-11-28T20:33:37.053Z,95877.18
2017-11-28T20:36:03.551Z,95878.63
2017-11-28T20:38:29.735Z,95877.60
2017-11-28T20:40:56.058Z,95882.35
2017-11-28T20:43:22.253Z,95882.50
2017-11-28T20:45:48.443Z,95884.31
2017-11-28T20:48:14.861Z,95886.50
2017-11-28T20:50:41.005Z,95882.34
2017-11-28T20:53:07.229Z,95880.39
2017-11-28T20:55:33.607Z,95877.98
2017-11-28T20:57:59.827Z,95876.02
2017-11-28T21:00:26.026Z,95876.14
2017-11-28T21:02:52.160Z,95875.61
2017-11-28T21:05:18.320Z,95868.71
2017-11-28T21:07:44.539Z,95871.33
2017-11-28T21:10:10.640Z,95872.45
2017-11-28T21:12:36.732Z,95876.08
2017-11-28T21:15:02.870Z,95872.93
2017-11-28T21:17:28.959Z,95876.70
2017-11-28T21:19:55.029Z,95874.09
2017-11-28T21:22:21.198Z,95877.92
2017-11-28T21:24:47.250Z,95877.14
2017-11-28T21:27:13.366Z,95869.33
2017-11-28T21:29:39.501Z,95868.47
2017-11-28T21:32:05.622Z,95869.86
2017-11-28T21:34:31.709Z,95864.61
2017-11-28T21:36:57.816Z,95861.87
2017-11-28T21:39:23.866Z,95862.95
2017-11-28T21:41:50.108Z,95860.77
2017-11-28T21:44:16.235Z,95858.07
2017-11-28T21:46:42.330Z,95851.65
2017-11-28T21:49:08.445Z,95850.28
2017-11-28T21:51:34.538Z,95848.92
2017-11-28T21:54:00.646Z,95853.67
2017-11-28T21:56:26.802Z,95847.48
2017-11-28T21:58:52.950Z,95847.94
2017-11-28T22:01:19.150Z,95858.55
2017-11-28T22:03:45.253Z,95857.09
2017-11-28T22:06:11.406Z,95855.63
2017-11-28T22:08:37.551Z,95857.12
2017-11-28T22:11:03.686Z,95855.33
2017-11-28T22:13:29.782Z,95855.78
2017-11-28T22:15:55.882Z,95857.27
2017-11-28T22:18:21.982Z,95848.95
2017-11-28T22:20:48.065Z,95854.17
2017-11-28T22:23:14.136Z,95857.86
2017-11-28T22:25:40.224Z,95859.88
2017-11-28T22:28:06.310Z,95861.01
2017-11-28T22:30:32.418Z,95856.58
2017-11-28T22:32:58.526Z,95854.63
2017-11-28T22:35:24.664Z,95853.67
2017-11-28T22:37:51.177Z,95852.16
2017-11-28T22:40:17.269Z,95849.42
2017-11-28T22:42:43.421Z,95842.92
2017-11-28T22:45:09.469Z,95852.16
2017-11-28T22:47:35.559Z,95847.84
2017-11-28T22:50:01.634Z,95852.13
2017-11-28T22:52:27.787Z,95840.66
2017-11-28T22:54:53.914Z,95850.76
2017-11-28T22:57:19.962Z,95850.52
2017-11-28T22:59:46.088Z,95844.84
2017-11-28T23:02:12.226Z,95851.20
2017-11-28T23:04:38.298Z,95844.14
2017-11-28T23:07:04.765Z,95845.56
2017-11-28T23:09:30.873Z,95849.95
2017-11-28T23:11:56.942Z,95848.17
2017-11-28T23:14:33.986Z,95847.02
2017-11-28T23:17:00.066Z,95848.11
2017-11-28T23:19:26.137Z,95843.54
2017-11-28T23:21:52.266Z,95843.48
2017-11-28T23:24:18.330Z,95843.30
2017-11-28T23:26:44.405Z,95836.65
2017-11-28T23:29:10.505Z,95832.28
2017-11-28T23:31:36.620Z,95838.13
2017-11-28T23:34:02.713Z,95838.37
2017-11-28T23:36:28.801Z,95839.47
2017-11-28T23:38:54.899Z,95843.12
2017-11-28T23:41:20.978Z,95838.27
2017-11-28T23:43:47.099Z,95844.95
2017-11-28T23:46:13.240Z,95835.89
2017-11-28T23:48:39.445Z,95833.55
2017-11-28T23:51:05.523Z,95828.81
2017-11-28T23:53:31.591Z,95833.98
2017-11-28T23:55:57.656Z,95832.05
2017-11-28T23:58:23.661Z,95832.05
